Time;durP1;ratioP1;P1;durP2;ratioP2;P2;SDS_P1;SDS_P2;PMS_P1;PMS_P2;Temp;Humidity;BMP_temperature;BMP_pressure;BME280_temperature;BME280_humidity;BME280_pressure;Samples;Min_cycle;Max_cycle;Signal;HPM_P1;HPM_P2
2022/01/15 00:00:59;;;;;;;76.32;29.30;;;;;;;;;;4978403;28;20034;-65
2022/01/15 00:03:27;;;;;;;68.78;27.45;;;;;;;;;;5001159;28;20032;-65
2022/01/15 00:05:54;;;;;;;65.80;26.98;;;;;;;;;;4998813;28;20045;-65
2022/01/15 00:08:21;;;;;;;69.55;29.15;;;;;;;;;;5007759;28;20045;-65
2022/01/15 00:10:47;;;;;;;73.28;30.38;;;;;;;;;;4996395;28;20034;-65
2022/01/15 00:13:23;;;;;;;72.30;27.17;;;;;;;;;;5003921;28;20426;-66
2022/01/15 00:16:01;;;;;;;62.55;27.70;;;;;;;;;;4992358;28;20051;-65
2022/01/15 00:18:40;;;;;;;63.03;27.40;;;;;;;;;;5007882;28;20398;-65
2022/01/15 00:21:06;;;;;;;73.32;28.30;;;;;;;;;;4998321;28;20113;-65
2022/01/15 00:23:32;;;;;;;73.85;28.73;;;;;;;;;;5001191;28;20050;-65
2022/01/15 00:25:58;;;;;;;74.50;28.77;;;;;;;;;;5005405;28;20018;-65
2022/01/15 00:28:25;;;;;;;72.47;28.23;;;;;;;;;;4994994;28;20023;-65
2022/01/15 00:30:51;;;;;;;79.63;30.80;;;;;;;;;;5007395;28;20030;-65
2022/01/15 00:33:17;;;;;;;73.65;29.80;;;;;;;;;;4991868;28;20026;-65
2022/01/15 00:35:43;;;;;;;81.32;29.60;;;;;;;;;;5006809;28;20390;-66
2022/01/15 00:38:09;;;;;;;73.70;27.75;;;;;;;;;;4998514;28;20054;-65
2022/01/15 00:40:36;;;;;;;87.22;32.63;;;;;;;;;;4996346;28;20033;-65
2022/01/15 00:43:02;;;;;;;81.18;33.08;;;;;;;;;;5000965;28;20371;-65
2022/01/15 00:45:32;;;;;;;77.47;28.10;;;;;;;;;;5005632;28;20026;-65
2022/01/15 00:47:59;;;;;;;74.85;30.10;;;;;;;;;;5001988;28;20435;-65
2022/01/15 00:50:25;;;;;;;75.15;29.23;;;;;;;;;;4995942;28;20380;-65
2022/01/15 00:52:51;;;;;;;78.28;28.65;;;;;;;;;;5010425;28;20483;-66
2022/01/15 00:55:19;;;;;;;75.00;28.60;;;;;;;;;;5002632;28;20042;-65
2022/01/15 00:57:45;;;;;;;66.70;26.80;;;;;;;;;;4985921;28;20058;-65
2022/01/15 01:00:13;;;;;;;71.50;27.75;;;;;;;;;;4997818;28;20045;-65
2022/01/15 01:02:40;;;;;;;65.43;26.85;;;;;;;;;;4997388;28;20457;-65
2022/01/15 01:05:06;;;;;;;67.97;26.50;;;;;;;;;;5008628;28;20057;-65
2022/01/15 01:07:32;;;;;;;66.80;26.08;;;;;;;;;;5003507;28;20405;-65
2022/01/15 01:23:13;;;;;;;65.72;26.15;;;;;;;;;;4940863;29;20035;-65
2022/01/15 01:25:43;;;;;;;63.40;24.70;;;;;;;;;;4943740;29;20032;-65
2022/01/15 01:28:20;;;;;;;60.08;25.08;;;;;;;;;;4938155;29;20051;-65
2022/01/15 01:33:46;;;;;;;70.50;26.15;;;;;;;;;;4935948;29;20043;-65
2022/01/15 01:41:18;;;;;;;64.73;27.23;;;;;;;;;;4940372;29;20062;-65
2022/01/15 01:44:01;;;;;;;65.57;26.70;;;;;;;;;;4942758;29;20088;-65
2022/01/15 01:48:54;;;;;;;80.55;27.98;;;;;;;;;;4932910;29;20118;-65
2022/01/15 01:51:23;;;;;;;67.65;27.67;;;;;;;;;;4933807;29;20131;-65
2022/01/15 01:53:49;;;;;;;77.03;28.25;;;;;;;;;;4933800;29;20044;-65
2022/01/15 01:56:15;;;;;;;68.35;28.15;;;;;;;;;;4934272;29;20035;-65
2022/01/15 01:58:42;;;;;;;72.50;27.95;;;;;;;;;;4934099;29;20055;-65
2022/01/15 02:01:08;;;;;;;68.15;25.40;;;;;;;;;;4984737;28;20034;-65
2022/01/15 02:03:34;;;;;;;70.35;28.63;;;;;;;;;;4993580;28;20030;-65
2022/01/15 02:06:00;;;;;;;69.13;27.55;;;;;;;;;;4993977;28;20077;-65
2022/01/15 02:08:26;;;;;;;64.97;24.92;;;;;;;;;;4993462;28;20499;-65
2022/01/15 02:10:52;;;;;;;61.03;24.95;;;;;;;;;;4993933;28;20502;-65
2022/01/15 02:13:19;;;;;;;58.63;23.88;;;;;;;;;;4993980;28;20073;-65
2022/01/15 02:15:45;;;;;;;70.25;25.80;;;;;;;;;;4993574;28;20030;-65
2022/01/15 02:18:11;;;;;;;63.45;25.73;;;;;;;;;;4993393;28;20057;-65
2022/01/15 02:25:59;;;;;;;59.15;24.83;;;;;;;;;;4993690;28;20553;-65
2022/01/15 02:28:26;;;;;;;63.95;25.33;;;;;;;;;;4993653;28;20030;-65
2022/01/15 02:31:03;;;;;;;61.92;25.35;;;;;;;;;;4976086;28;20451;-65
2022/01/15 02:33:30;;;;;;;76.93;27.50;;;;;;;;;;4993232;28;20089;-65
2022/01/15 02:35:56;;;;;;;63.60;26.75;;;;;;;;;;4993283;28;20069;-66
2022/01/15 02:38:22;;;;;;;65.07;26.95;;;;;;;;;;4975904;28;20050;-65
2022/01/15 02:40:49;;;;;;;73.50;28.88;;;;;;;;;;4993215;28;20038;-65
2022/01/15 02:43:18;;;;;;;65.85;27.00;;;;;;;;;;4993530;28;20033;-65
2022/01/15 02:45:53;;;;;;;72.85;28.83;;;;;;;;;;4993059;28;20161;-65
2022/01/15 02:48:19;;;;;;;70.45;27.85;;;;;;;;;;4975237;28;20402;-65
2022/01/15 02:50:46;;;;;;;71.47;29.05;;;;;;;;;;4992920;28;20104;-65
2022/01/15 02:53:16;;;;;;;68.60;29.85;;;;;;;;;;4993187;28;20109;-65
2022/01/15 02:55:42;;;;;;;73.63;29.02;;;;;;;;;;4993148;28;20056;-65
2022/01/15 02:58:08;;;;;;;68.00;27.27;;;;;;;;;;4993251;28;20063;-65
2022/01/15 03:00:35;;;;;;;68.75;27.73;;;;;;;;;;4992876;28;20026;-65
2022/01/15 03:03:01;;;;;;;67.18;28.00;;;;;;;;;;4992599;28;20026;-66
2022/01/15 03:05:27;;;;;;;68.30;28.85;;;;;;;;;;4993328;28;20541;-65
2022/01/15 03:07:53;;;;;;;70.82;29.33;;;;;;;;;;4992623;28;20045;-65
2022/01/15 03:10:19;;;;;;;76.40;28.20;;;;;;;;;;4993002;28;20041;-66
2022/01/15 03:12:46;;;;;;;70.28;27.20;;;;;;;;;;4992807;28;20491;-65
2022/01/15 03:15:17;;;;;;;72.80;28.48;;;;;;;;;;4992958;28;20045;-65
2022/01/15 03:17:44;;;;;;;70.25;28.60;;;;;;;;;;4992041;28;20069;-65
2022/01/15 03:20:10;;;;;;;68.15;27.50;;;;;;;;;;4991474;28;20027;-66
2022/01/15 03:22:36;;;;;;;63.03;27.05;;;;;;;;;;4990675;28;20125;-65
2022/01/15 03:25:03;;;;;;;63.75;26.52;;;;;;;;;;4992048;28;20027;-65
2022/01/15 03:27:29;;;;;;;70.75;28.02;;;;;;;;;;4993807;28;20037;-66
2022/01/15 03:29:55;;;;;;;65.57;27.63;;;;;;;;;;4993192;28;20495;-65
2022/01/15 03:32:21;;;;;;;71.93;27.20;;;;;;;;;;4991786;28;20080;-65
2022/01/15 03:34:48;;;;;;;63.70;26.73;;;;;;;;;;4974569;28;20030;-65
2022/01/15 03:37:15;;;;;;;74.35;27.52;;;;;;;;;;4992038;28;20160;-65
2022/01/15 03:39:41;;;;;;;69.22;27.88;;;;;;;;;;4995396;28;20526;-65
2022/01/15 03:42:11;;;;;;;69.28;28.15;;;;;;;;;;4994165;28;20037;-65
2022/01/15 03:44:39;;;;;;;71.85;28.45;;;;;;;;;;4989034;28;20038;-65
2022/01/15 03:47:05;;;;;;;61.22;27.10;;;;;;;;;;4992529;28;20026;-65
2022/01/15 03:49:31;;;;;;;63.13;27.00;;;;;;;;;;4992787;28;20030;-65
2022/01/15 03:51:57;;;;;;;70.28;28.67;;;;;;;;;;4993887;28;20487;-65
2022/01/15 03:54:23;;;;;;;65.05;27.63;;;;;;;;;;4994242;28;20085;-65
2022/01/15 03:56:49;;;;;;;66.47;28.05;;;;;;;;;;4994124;28;20101;-65
2022/01/15 03:59:16;;;;;;;77.15;29.20;;;;;;;;;;4990979;28;20384;-65
2022/01/15 04:01:42;;;;;;;68.35;28.02;;;;;;;;;;4991356;28;20114;-65
2022/01/15 04:04:08;;;;;;;60.80;26.83;;;;;;;;;;4979541;28;20034;-65
2022/01/15 04:06:35;;;;;;;69.97;27.60;;;;;;;;;;4991374;28;20027;-65
2022/01/15 04:09:01;;;;;;;68.63;28.27;;;;;;;;;;4991297;28;20073;-65
2022/01/15 04:11:28;;;;;;;70.45;26.92;;;;;;;;;;4974244;28;20050;-65
2022/01/15 04:13:55;;;;;;;68.75;28.08;;;;;;;;;;4994938;28;20411;-65
2022/01/15 04:16:21;;;;;;;71.82;28.75;;;;;;;;;;4994265;28;20030;-65
2022/01/15 04:18:47;;;;;;;67.13;27.77;;;;;;;;;;4994725;28;20046;-65
2022/01/15 04:21:14;;;;;;;65.63;27.05;;;;;;;;;;4995063;28;20368;-65
2022/01/15 04:23:40;;;;;;;64.15;26.77;;;;;;;;;;4997683;28;20022;-65
2022/01/15 04:26:06;;;;;;;66.40;27.40;;;;;;;;;;4995930;28;20508;-65
2022/01/15 04:28:34;;;;;;;79.70;29.23;;;;;;;;;;4994624;28;20022;-65
2022/01/15 04:31:05;;;;;;;70.00;27.63;;;;;;;;;;4995284;28;20493;-65
2022/01/15 04:33:35;;;;;;;60.35;27.23;;;;;;;;;;4995098;28;20104;-65
2022/01/15 04:36:01;;;;;;;68.40;29.65;;;;;;;;;;4994988;28;20019;-65
2022/01/15 04:38:29;;;;;;;65.53;27.13;;;;;;;;;;4994737;28;20058;-65
2022/01/15 04:40:55;;;;;;;68.72;28.55;;;;;;;;;;4995555;28;20037;-65
2022/01/15 04:43:21;;;;;;;68.00;29.05;;;;;;;;;;4994193;28;20034;-65
2022/01/15 04:45:47;;;;;;;71.95;29.50;;;;;;;;;;4995263;28;20030;-65
2022/01/15 04:48:13;;;;;;;73.15;28.98;;;;;;;;;;4995274;28;20513;-65
2022/01/15 04:50:39;;;;;;;66.45;27.50;;;;;;;;;;4995270;28;20364;-65
2022/01/15 04:53:07;;;;;;;63.10;27.52;;;;;;;;;;4995519;28;20026;-65
2022/01/15 04:55:33;;;;;;;67.25;26.30;;;;;;;;;;4995223;28;20042;-65
2022/01/15 04:57:59;;;;;;;69.70;26.63;;;;;;;;;;4994847;28;20097;-65
2022/01/15 05:00:25;;;;;;;63.67;26.25;;;;;;;;;;4995183;28;20113;-65
2022/01/15 05:02:51;;;;;;;67.30;26.45;;;;;;;;;;4994992;28;20030;-65
2022/01/15 05:05:17;;;;;;;59.95;26.88;;;;;;;;;;4995167;28;20026;-65
2022/01/15 05:07:44;;;;;;;59.10;25.33;;;;;;;;;;4995086;28;20029;-65
2022/01/15 05:10:12;;;;;;;58.80;26.40;;;;;;;;;;4995128;28;20116;-65
2022/01/15 05:12:47;;;;;;;58.53;26.30;;;;;;;;;;4994443;28;20026;-65
2022/01/15 05:15:14;;;;;;;62.83;27.15;;;;;;;;;;4977192;28;20470;-65
2022/01/15 05:17:41;;;;;;;60.55;26.67;;;;;;;;;;4994899;28;20034;-65
2022/01/15 05:20:08;;;;;;;62.53;26.35;;;;;;;;;;4995075;28;20054;-65
2022/01/15 05:22:34;;;;;;;62.22;27.13;;;;;;;;;;4994556;28;20030;-65
2022/01/15 05:25:01;;;;;;;53.90;24.27;;;;;;;;;;4994850;28;20498;-65
2022/01/15 05:27:27;;;;;;;56.30;24.10;;;;;;;;;;4994528;28;20027;-65
2022/01/15 05:29:53;;;;;;;59.28;25.70;;;;;;;;;;4994463;28;20049;-65
2022/01/15 05:32:23;;;;;;;52.13;24.00;;;;;;;;;;4994834;28;20380;-65
2022/01/15 05:34:49;;;;;;;56.10;23.55;;;;;;;;;;4976870;28;20391;-65
2022/01/15 05:37:15;;;;;;;54.83;24.15;;;;;;;;;;4994284;28;20149;-65
2022/01/15 05:39:41;;;;;;;60.10;25.38;;;;;;;;;;4994272;28;20046;-65
2022/01/15 05:42:07;;;;;;;57.58;24.83;;;;;;;;;;4994413;28;20042;-65
2022/01/15 05:44:34;;;;;;;52.53;24.33;;;;;;;;;;4994272;28;20391;-65
2022/01/15 05:47:00;;;;;;;56.55;24.90;;;;;;;;;;4994382;28;20037;-65
2022/01/15 05:49:26;;;;;;;58.63;25.35;;;;;;;;;;4993553;28;20026;-65
2022/01/15 05:51:53;;;;;;;56.97;26.38;;;;;;;;;;4994160;28;20073;-65
2022/01/15 05:54:19;;;;;;;54.70;24.20;;;;;;;;;;4994383;28;20030;-65
2022/01/15 05:56:45;;;;;;;54.50;24.10;;;;;;;;;;4993593;28;20434;-65
2022/01/15 05:59:11;;;;;;;53.88;24.60;;;;;;;;;;4994258;28;20034;-65
2022/01/15 06:01:38;;;;;;;59.65;23.73;;;;;;;;;;4993880;28;20031;-65
2022/01/15 06:04:04;;;;;;;57.63;24.80;;;;;;;;;;4994021;28;20117;-66
2022/01/15 06:06:30;;;;;;;54.30;23.08;;;;;;;;;;4994152;28;20022;-65
2022/01/15 06:08:56;;;;;;;56.25;24.67;;;;;;;;;;4993862;28;20050;-65
2022/01/15 06:11:24;;;;;;;50.15;22.90;;;;;;;;;;4993766;28;20069;-65
2022/01/15 06:13:50;;;;;;;55.20;23.70;;;;;;;;;;4993578;28;20030;-65
2022/01/15 06:16:16;;;;;;;51.63;23.80;;;;;;;;;;4993869;28;20537;-65
2022/01/15 06:18:43;;;;;;;49.42;23.75;;;;;;;;;;4993588;28;20120;-65
2022/01/15 06:21:09;;;;;;;48.65;23.35;;;;;;;;;;4993703;28;20019;-65
2022/01/15 06:23:35;;;;;;;58.17;22.70;;;;;;;;;;4993549;28;20037;-66
2022/01/15 06:26:01;;;;;;;50.85;22.63;;;;;;;;;;4993021;28;20033;-65
2022/01/15 06:28:27;;;;;;;58.00;25.25;;;;;;;;;;4993798;28;20062;-66
2022/01/15 06:30:53;;;;;;;53.50;24.48;;;;;;;;;;4999388;28;20076;-66
2022/01/15 06:33:19;;;;;;;50.80;23.40;;;;;;;;;;4998958;28;20125;-65
2022/01/15 06:35:46;;;;;;;50.97;22.08;;;;;;;;;;5008448;28;20022;-65
2022/01/15 06:38:12;;;;;;;56.55;25.35;;;;;;;;;;4980633;28;20049;-66
2022/01/15 06:40:38;;;;;;;48.28;22.55;;;;;;;;;;4997330;28;20064;-65
2022/01/15 06:43:06;;;;;;;52.95;23.83;;;;;;;;;;4990749;28;20114;-66
2022/01/15 06:45:33;;;;;;;58.13;24.25;;;;;;;;;;4990978;28;20034;-66
2022/01/15 06:48:00;;;;;;;50.35;23.83;;;;;;;;;;4995575;28;20056;-66
2022/01/15 06:50:28;;;;;;;50.92;23.35;;;;;;;;;;4995734;28;20076;-66
2022/01/15 06:52:54;;;;;;;50.67;22.05;;;;;;;;;;4994672;28;20089;-66
2022/01/15 06:55:20;;;;;;;48.03;21.80;;;;;;;;;;4995405;28;20121;-66
2022/01/15 06:57:46;;;;;;;52.20;24.23;;;;;;;;;;4997977;28;20120;-66
2022/01/15 07:00:12;;;;;;;49.75;22.35;;;;;;;;;;5000766;28;20015;-66
2022/01/15 07:02:39;;;;;;;55.35;23.35;;;;;;;;;;4993181;28;20019;-66
2022/01/15 07:05:06;;;;;;;54.10;23.48;;;;;;;;;;4996653;28;20467;-66
2022/01/15 07:07:32;;;;;;;53.10;24.55;;;;;;;;;;4995979;28;20030;-66
2022/01/15 07:09:58;;;;;;;56.35;23.67;;;;;;;;;;4986761;28;20027;-66
2022/01/15 07:12:24;;;;;;;52.40;22.13;;;;;;;;;;4994338;28;20033;-66
2022/01/15 07:14:51;;;;;;;51.10;23.67;;;;;;;;;;4994828;28;20550;-66
2022/01/15 07:17:17;;;;;;;51.85;22.98;;;;;;;;;;4994001;28;20049;-66
2022/01/15 07:19:43;;;;;;;54.17;23.52;;;;;;;;;;4996365;28;20089;-66
2022/01/15 07:22:09;;;;;;;51.63;23.13;;;;;;;;;;4994985;28;20019;-66
2022/01/15 07:24:36;;;;;;;56.58;23.38;;;;;;;;;;4994972;28;20391;-66
2022/01/15 07:27:03;;;;;;;49.58;22.05;;;;;;;;;;4999376;28;20470;-66
2022/01/15 07:29:30;;;;;;;51.38;22.45;;;;;;;;;;4993540;28;20034;-66
2022/01/15 07:31:57;;;;;;;44.05;21.35;;;;;;;;;;5004763;28;20033;-66
2022/01/15 07:34:23;;;;;;;51.28;22.48;;;;;;;;;;4999021;28;20045;-66
2022/01/15 07:36:54;;;;;;;52.72;23.13;;;;;;;;;;4995048;28;20049;-66
2022/01/15 07:39:21;;;;;;;49.92;24.40;;;;;;;;;;4995404;28;20050;-66
2022/01/15 07:41:47;;;;;;;52.72;22.88;;;;;;;;;;4992244;28;20367;-66
2022/01/15 07:44:13;;;;;;;54.95;22.90;;;;;;;;;;4992153;28;20105;-66
2022/01/15 07:46:39;;;;;;;48.63;22.38;;;;;;;;;;4991310;28;20026;-66
2022/01/15 07:49:05;;;;;;;43.53;22.13;;;;;;;;;;4997801;28;20050;-66
2022/01/15 07:51:31;;;;;;;51.60;24.10;;;;;;;;;;4977146;28;20471;-66
2022/01/15 07:53:57;;;;;;;52.33;23.17;;;;;;;;;;4993062;28;20426;-68
2022/01/15 07:56:24;;;;;;;46.33;21.30;;;;;;;;;;4995722;28;20372;-66
2022/01/15 07:58:50;;;;;;;49.35;22.60;;;;;;;;;;4999317;28;20550;-66
2022/01/15 08:01:17;;;;;;;48.20;22.70;;;;;;;;;;4995129;28;20050;-65
2022/01/15 08:03:43;;;;;;;48.47;22.33;;;;;;;;;;5014620;28;20109;-65
2022/01/15 08:06:10;;;;;;;48.78;21.70;;;;;;;;;;4994700;28;20022;-66
2022/01/15 08:08:36;;;;;;;45.33;22.80;;;;;;;;;;4995706;28;20113;-66
2022/01/15 08:11:03;;;;;;;46.45;22.58;;;;;;;;;;4996721;28;20038;-66
2022/01/15 08:13:32;;;;;;;43.65;22.60;;;;;;;;;;5002224;28;20042;-66
2022/01/15 08:15:59;;;;;;;48.83;23.35;;;;;;;;;;4982832;28;20045;-66
2022/01/15 08:18:26;;;;;;;46.15;22.02;;;;;;;;;;4995774;28;20039;-66
2022/01/15 08:20:52;;;;;;;45.50;22.90;;;;;;;;;;4996194;28;20026;-66
2022/01/15 08:23:19;;;;;;;46.80;22.45;;;;;;;;;;4994557;28;20030;-65
2022/01/15 08:25:45;;;;;;;41.22;21.42;;;;;;;;;;4996339;28;20470;-66
2022/01/15 08:28:11;;;;;;;51.00;24.02;;;;;;;;;;4995544;28;20066;-66
2022/01/15 08:30:37;;;;;;;46.55;21.42;;;;;;;;;;4994246;28;20041;-66
2022/01/15 08:33:03;;;;;;;47.90;22.73;;;;;;;;;;4996379;28;20022;-65
2022/01/15 08:35:29;;;;;;;43.92;20.77;;;;;;;;;;4996137;28;20383;-65
2022/01/15 08:37:57;;;;;;;40.83;21.02;;;;;;;;;;4996051;28;20077;-65
2022/01/15 08:40:24;;;;;;;39.90;19.38;;;;;;;;;;4994002;28;20034;-65
2022/01/15 08:42:50;;;;;;;41.08;20.27;;;;;;;;;;4995084;28;20024;-65
2022/01/15 08:45:17;;;;;;;39.28;19.65;;;;;;;;;;4993406;28;20407;-66
2022/01/15 08:47:43;;;;;;;43.78;20.38;;;;;;;;;;4995797;28;20038;-66
2022/01/15 08:50:11;;;;;;;41.70;20.25;;;;;;;;;;4993475;28;20022;-66
2022/01/15 08:52:37;;;;;;;40.28;19.75;;;;;;;;;;4997543;28;20062;-66
2022/01/15 08:55:04;;;;;;;39.92;19.55;;;;;;;;;;4993380;28;20026;-66
2022/01/15 08:57:30;;;;;;;41.25;22.25;;;;;;;;;;4995794;28;20041;-65
2022/01/15 08:59:56;;;;;;;43.13;22.42;;;;;;;;;;4995072;28;20027;-66
2022/01/15 09:02:22;;;;;;;41.78;20.73;;;;;;;;;;5000177;28;20066;-66
2022/01/15 09:04:48;;;;;;;43.38;21.25;;;;;;;;;;4994858;28;20029;-66
2022/01/15 09:07:15;;;;;;;42.70;21.90;;;;;;;;;;4976350;28;20084;-66
2022/01/15 09:09:41;;;;;;;44.15;21.58;;;;;;;;;;4982272;28;20054;-66
2022/01/15 09:12:07;;;;;;;42.80;21.13;;;;;;;;;;4995302;28;20026;-66
2022/01/15 09:14:34;;;;;;;79.95;24.63;;;;;;;;;;4996630;28;20026;-66
2022/01/15 09:17:00;;;;;;;84.65;24.75;;;;;;;;;;4999146;28;20028;-65
2022/01/15 09:19:26;;;;;;;49.00;22.13;;;;;;;;;;4991602;28;20026;-66
2022/01/15 09:21:52;;;;;;;45.85;21.08;;;;;;;;;;4997333;28;20021;-66
2022/01/15 09:24:18;;;;;;;48.97;22.85;;;;;;;;;;4994461;28;20364;-66
2022/01/15 09:26:59;;;;;;;46.55;22.83;;;;;;;;;;4975175;28;20459;-66
2022/01/15 09:32:10;;;;;;;41.88;21.95;;;;;;;;;;4999363;28;20382;-66
2022/01/15 09:34:37;;;;;;;45.10;23.83;;;;;;;;;;4997161;28;20030;-66
2022/01/15 09:37:04;;;;;;;49.63;25.42;;;;;;;;;;4998351;28;20057;-66
2022/01/15 09:39:30;;;;;;;49.78;25.67;;;;;;;;;;5000098;28;20045;-65
2022/01/15 09:41:56;;;;;;;57.60;26.77;;;;;;;;;;4999135;28;20040;-66
2022/01/15 09:44:23;;;;;;;55.33;28.15;;;;;;;;;;5000360;28;20445;-66
2022/01/15 09:46:50;;;;;;;122.05;34.25;;;;;;;;;;4993869;28;20084;-66
2022/01/15 09:49:17;;;;;;;53.05;26.60;;;;;;;;;;4994309;28;20034;-71
2022/01/15 09:51:43;;;;;;;52.97;27.40;;;;;;;;;;5004034;28;20022;-68
2022/01/15 09:54:09;;;;;;;48.85;25.40;;;;;;;;;;4999902;28;20037;-66
2022/01/15 09:56:35;;;;;;;59.92;27.42;;;;;;;;;;4993558;28;20041;-65
2022/01/15 09:59:02;;;;;;;49.47;24.90;;;;;;;;;;4987323;28;20030;-65
2022/01/15 10:01:29;;;;;;;50.78;26.40;;;;;;;;;;4971500;28;20026;-65
2022/01/15 10:03:55;;;;;;;50.53;25.35;;;;;;;;;;4991770;28;20045;-65
2022/01/15 10:06:21;;;;;;;48.25;23.33;;;;;;;;;;4989638;28;20034;-65
2022/01/15 10:09:00;;;;;;;52.22;24.77;;;;;;;;;;4991804;28;20019;-66
2022/01/15 10:11:59;;;;;;;48.75;23.80;;;;;;;;;;4992687;28;20030;-65
2022/01/15 10:14:25;;;;;;;44.30;23.65;;;;;;;;;;4952761;28;20038;-65
2022/01/15 10:16:51;;;;;;;44.80;23.60;;;;;;;;;;4953291;28;20039;-65
2022/01/15 10:19:34;;;;;;;47.25;24.17;;;;;;;;;;4957386;28;20027;-65
2022/01/15 10:22:12;;;;;;;42.10;23.48;;;;;;;;;;4958051;28;20059;-65
2022/01/15 10:24:39;;;;;;;45.78;22.95;;;;;;;;;;4953552;28;20171;-65
2022/01/15 10:27:18;;;;;;;50.15;23.30;;;;;;;;;;4953758;28;20034;-66
2022/01/15 10:29:55;;;;;;;46.90;23.95;;;;;;;;;;4952793;28;20053;-66
2022/01/15 10:32:21;;;;;;;45.58;24.10;;;;;;;;;;4955757;28;20094;-65
2022/01/15 10:34:47;;;;;;;43.20;22.38;;;;;;;;;;4949970;28;20023;-66
2022/01/15 10:37:18;;;;;;;39.92;21.08;;;;;;;;;;4948410;28;20047;-65
2022/01/15 10:40:03;;;;;;;41.40;21.00;;;;;;;;;;4951912;29;20139;-65
2022/01/15 10:42:29;;;;;;;35.38;19.67;;;;;;;;;;4952851;29;20038;-65
2022/01/15 10:44:59;;;;;;;39.85;20.23;;;;;;;;;;4951571;29;20107;-65
2022/01/15 10:47:27;;;;;;;37.97;21.33;;;;;;;;;;4951793;29;20133;-65
2022/01/15 10:49:53;;;;;;;35.90;21.05;;;;;;;;;;4970390;28;20133;-65
2022/01/15 10:52:24;;;;;;;40.47;21.05;;;;;;;;;;4991519;28;20089;-65
2022/01/15 10:54:53;;;;;;;36.33;19.42;;;;;;;;;;4992924;28;20038;-65
2022/01/15 10:57:21;;;;;;;36.47;19.67;;;;;;;;;;4992874;28;20033;-65
2022/01/15 11:00:06;;;;;;;30.08;17.02;;;;;;;;;;4992869;28;20025;-65
2022/01/15 11:02:32;;;;;;;33.25;16.90;;;;;;;;;;4992800;28;20430;-65
2022/01/15 11:04:58;;;;;;;24.30;14.07;;;;;;;;;;4993311;28;20034;-66
2022/01/15 11:07:24;;;;;;;26.10;13.70;;;;;;;;;;4992919;28;20089;-66
2022/01/15 11:09:53;;;;;;;26.23;14.30;;;;;;;;;;4993008;28;20030;-66
2022/01/15 11:12:19;;;;;;;22.23;13.10;;;;;;;;;;4992966;28;20097;-66
2022/01/15 11:14:45;;;;;;;22.65;12.45;;;;;;;;;;4992663;28;20030;-65
2022/01/15 11:17:12;;;;;;;20.88;12.05;;;;;;;;;;4992941;28;20387;-65
2022/01/15 11:19:40;;;;;;;23.05;12.55;;;;;;;;;;4992859;28;20029;-66
2022/01/15 11:22:06;;;;;;;25.13;12.73;;;;;;;;;;4992848;28;20022;-66
2022/01/15 11:24:32;;;;;;;22.92;12.35;;;;;;;;;;4992620;28;20035;-65
2022/01/15 11:27:00;;;;;;;22.10;11.65;;;;;;;;;;4992830;28;20037;-65
2022/01/15 11:29:26;;;;;;;20.83;11.50;;;;;;;;;;4992346;28;20022;-65
2022/01/15 11:31:53;;;;;;;21.27;10.50;;;;;;;;;;4992880;28;20031;-65
2022/01/15 11:34:27;;;;;;;19.58;11.38;;;;;;;;;;4992687;28;20038;-65
2022/01/15 11:36:54;;;;;;;18.27;10.32;;;;;;;;;;4992624;28;20030;-65
2022/01/15 11:39:20;;;;;;;19.25;10.73;;;;;;;;;;4992420;28;20496;-65
2022/01/15 11:41:48;;;;;;;17.85;9.50;;;;;;;;;;4992597;28;20023;-65
2022/01/15 11:44:18;;;;;;;18.35;9.70;;;;;;;;;;4975081;28;20109;-65
2022/01/15 11:46:52;;;;;;;17.52;9.98;;;;;;;;;;4992605;28;20077;-65
2022/01/15 11:49:24;;;;;;;18.38;8.55;;;;;;;;;;4992548;28;20034;-65
2022/01/15 11:51:51;;;;;;;16.65;10.00;;;;;;;;;;4992620;28;20031;-65
2022/01/15 11:54:17;;;;;;;18.15;10.02;;;;;;;;;;4992855;28;20080;-65
2022/01/15 11:56:43;;;;;;;16.85;8.88;;;;;;;;;;4992530;28;20033;-65
2022/01/15 11:59:33;;;;;;;17.17;8.80;;;;;;;;;;4992336;28;20029;-65
2022/01/15 12:02:01;;;;;;;18.67;9.70;;;;;;;;;;4987227;28;20120;-65
2022/01/15 12:04:30;;;;;;;21.08;9.00;;;;;;;;;;4992223;28;20022;-65
2022/01/15 12:07:05;;;;;;;16.60;9.85;;;;;;;;;;4992787;28;20034;-65
2022/01/15 12:09:35;;;;;;;21.45;11.23;;;;;;;;;;4992378;28;20544;-65
2022/01/15 12:12:02;;;;;;;18.75;9.98;;;;;;;;;;4992580;28;20486;-65
2022/01/15 12:14:47;;;;;;;17.38;9.82;;;;;;;;;;4991995;28;20026;-65
2022/01/15 12:17:32;;;;;;;18.35;9.18;;;;;;;;;;4992223;28;20023;-65
2022/01/15 12:19:59;;;;;;;20.90;10.50;;;;;;;;;;4992427;28;20045;-65
2022/01/15 12:22:43;;;;;;;19.88;10.80;;;;;;;;;;4992275;28;20026;-65
2022/01/15 12:25:13;;;;;;;21.58;10.38;;;;;;;;;;4992463;28;20060;-65
2022/01/15 12:27:41;;;;;;;20.95;10.98;;;;;;;;;;4991907;28;20058;-65
2022/01/15 12:30:12;;;;;;;18.13;10.60;;;;;;;;;;4992433;28;20387;-65
2022/01/15 12:32:42;;;;;;;20.00;11.15;;;;;;;;;;4992200;28;20027;-65
2022/01/15 12:35:16;;;;;;;19.92;10.40;;;;;;;;;;4995819;28;20080;-65
2022/01/15 12:37:57;;;;;;;19.63;10.93;;;;;;;;;;4995110;28;20026;-65
2022/01/15 12:40:35;;;;;;;21.70;10.80;;;;;;;;;;4996035;28;20030;-65
2022/01/15 12:43:06;;;;;;;21.52;11.25;;;;;;;;;;4995507;28;20022;-65
2022/01/15 12:45:33;;;;;;;21.83;10.80;;;;;;;;;;4995615;28;20034;-66
2022/01/15 12:47:59;;;;;;;22.85;11.35;;;;;;;;;;4995596;28;20101;-65
2022/01/15 12:50:26;;;;;;;22.95;11.60;;;;;;;;;;4995429;28;20036;-65
2022/01/15 12:53:02;;;;;;;22.75;11.98;;;;;;;;;;4995463;28;20027;-66
2022/01/15 12:55:29;;;;;;;24.67;10.82;;;;;;;;;;4995420;28;20034;-65
2022/01/15 12:57:55;;;;;;;21.50;10.85;;;;;;;;;;4994927;28;20027;-65
2022/01/15 13:00:23;;;;;;;21.10;11.82;;;;;;;;;;4995515;28;20030;-65
2022/01/15 13:02:53;;;;;;;20.17;11.82;;;;;;;;;;4995420;28;20368;-65
2022/01/15 13:05:19;;;;;;;26.92;12.07;;;;;;;;;;4995392;28;20534;-65
2022/01/15 13:07:46;;;;;;;22.58;12.20;;;;;;;;;;4995086;28;20030;-65
2022/01/15 13:10:25;;;;;;;25.63;12.15;;;;;;;;;;4995287;28;20022;-65
2022/01/15 13:12:51;;;;;;;24.48;13.20;;;;;;;;;;4995272;28;20027;-65
2022/01/15 13:15:22;;;;;;;25.30;14.15;;;;;;;;;;4995169;28;20030;-65
2022/01/15 13:17:48;;;;;;;28.92;14.32;;;;;;;;;;4994627;28;20037;-65
2022/01/15 13:20:34;;;;;;;24.50;11.75;;;;;;;;;;4995284;28;20495;-66
2022/01/15 13:23:00;;;;;;;17.98;10.27;;;;;;;;;;4994961;28;20030;-65
2022/01/15 13:25:27;;;;;;;21.92;11.43;;;;;;;;;;4994712;28;20475;-65
2022/01/15 13:27:54;;;;;;;22.20;11.15;;;;;;;;;;4994963;28;20122;-65
2022/01/15 13:30:21;;;;;;;23.42;11.25;;;;;;;;;;4994919;28;20026;-65
2022/01/15 13:32:54;;;;;;;22.90;12.13;;;;;;;;;;4994603;28;20058;-65
2022/01/15 13:35:23;;;;;;;24.48;12.02;;;;;;;;;;4994890;28;20092;-65
2022/01/15 13:37:50;;;;;;;22.02;10.82;;;;;;;;;;4994106;28;20375;-65
2022/01/15 13:40:35;;;;;;;24.33;11.88;;;;;;;;;;4994405;28;20034;-65
2022/01/15 13:43:01;;;;;;;25.48;13.18;;;;;;;;;;4994531;28;20038;-65
2022/01/15 13:45:32;;;;;;;26.10;13.70;;;;;;;;;;4993405;28;20097;-65
2022/01/15 13:48:13;;;;;;;27.85;14.32;;;;;;;;;;4994496;28;20043;-65
2022/01/15 13:53:28;;;;;;;25.20;13.20;;;;;;;;;;4994705;28;20038;-65
2022/01/15 13:56:08;;;;;;;25.00;13.98;;;;;;;;;;4993945;28;20035;-65
2022/01/15 13:58:34;;;;;;;28.55;14.02;;;;;;;;;;4994178;28;20033;-65
2022/01/15 14:01:15;;;;;;;34.92;14.85;;;;;;;;;;4994185;28;20057;-65
2022/01/15 14:03:41;;;;;;;32.17;15.95;;;;;;;;;;4994150;28;20384;-65
2022/01/15 14:06:07;;;;;;;28.88;15.27;;;;;;;;;;4994366;28;20026;-65
2022/01/15 14:08:33;;;;;;;32.25;15.70;;;;;;;;;;4976174;28;20040;-65
2022/01/15 14:10:59;;;;;;;28.92;14.60;;;;;;;;;;4994013;28;20030;-65
2022/01/15 14:13:28;;;;;;;30.70;16.23;;;;;;;;;;4994018;28;20041;-65
2022/01/15 14:15:54;;;;;;;35.42;17.10;;;;;;;;;;4993886;28;20453;-65
2022/01/15 14:18:30;;;;;;;37.67;17.73;;;;;;;;;;4994123;28;20097;-65
2022/01/15 14:23:39;;;;;;;33.05;16.63;;;;;;;;;;4993561;28;20025;-65
2022/01/15 14:26:24;;;;;;;34.70;16.77;;;;;;;;;;4993871;28;20035;-65
2022/01/15 14:28:51;;;;;;;33.58;17.00;;;;;;;;;;4993722;28;20030;-65
2022/01/15 14:31:21;;;;;;;31.58;16.75;;;;;;;;;;4993758;28;20030;-65
2022/01/15 14:33:56;;;;;;;36.10;17.70;;;;;;;;;;4993268;28;20034;-65
2022/01/15 14:36:23;;;;;;;37.97;16.88;;;;;;;;;;4993600;28;20049;-65
2022/01/15 14:38:49;;;;;;;36.17;16.75;;;;;;;;;;4992720;28;20046;-65
2022/01/15 14:41:16;;;;;;;34.63;16.75;;;;;;;;;;4993570;28;20487;-65
2022/01/15 14:43:42;;;;;;;34.22;18.00;;;;;;;;;;4993406;28;20031;-65
2022/01/15 14:46:09;;;;;;;30.55;17.15;;;;;;;;;;4993490;28;20386;-65
2022/01/15 14:48:35;;;;;;;32.90;17.25;;;;;;;;;;4993383;28;20023;-65
2022/01/15 14:51:02;;;;;;;34.25;16.92;;;;;;;;;;4993298;28;20058;-65
2022/01/15 14:53:28;;;;;;;36.20;17.58;;;;;;;;;;4993172;28;20026;-65
2022/01/15 14:55:54;;;;;;;35.35;17.48;;;;;;;;;;4992780;28;20124;-65
2022/01/15 14:58:20;;;;;;;33.67;17.02;;;;;;;;;;4993374;28;20495;-65
2022/01/15 15:00:49;;;;;;;35.25;17.80;;;;;;;;;;4992997;28;20027;-65